Terminal Aerodrome Forecast
Issued by NWS Jacksonville, FL

Home | Current Version | Previous Version | Text Only | Print | Product List | Glossary On
Versions: 1 2 3 4 5 6 7 8 9 10 11 12 13 14 15 16 17
000
FTUS42 KJAX 231742
TAFGNV
TAF
KGNV 231742Z 2318/2418 16010G20KT P6SM VCTS BKN020 OVC025CB
      TEMPO 2318/2322 5SM TSRA SCT015 BKN020 BKN025CB
     FM240200 36006KT P6SM VCSH OVC015
     FM240900 VRB03KT 4SM BR OVC005=

USA.gov is the U.S. government's official web portal to all federal, state and local government web resources and services.